| time (UTC) | temp F | wind direction | speed knots | gust knots | rain 1hr in | rain 24hr in | rain mn in | humidity % | barometer mb |
| 20260504050519 | 49 | 0.0 | 0.0 | 0.00 | 0.00 | 0.00 | 67 | 1005.2 | |
| 20260504045519 | 50 | 0.0 | 0.0 | 0.00 | 0.00 | 0.00 | 65 | 1005.3 | |
| 20260504044519 | 51 | 0.0 | 0.0 | 0.00 | 0.00 | 0.00 | 64 | 1005.5 | |
| 20260504043519 | 51 | 0.0 | 0.0 | 0.00 | 0.00 | 0.00 | 63 | 1005.5 | |
| 20260504042519 | 52 | 0.0 | 0.0 | 0.00 | 0.00 | 0.00 | 62 | 1005.7 | |
| 20260504041519 | 53 | 0.0 | 1.7 | 0.00 | 0.00 | 0.00 | 61 | 1005.7 | |
| 20260504040519 | 54 | 0.0 | 0.0 | 0.00 | 0.00 | 0.00 | 58 | 1005.7 | |
| 20260504035519 | 54 | 0.0 | 0.0 | 0.00 | 0.00 | 0.00 | 58 | 1005.8 | |
| 20260504034519 | 55 | 0.0 | 0.0 | 0.00 | 0.00 | 0.00 | 57 | 1006.0 | |
| 20260504033519 | 56 | 0.0 | 1.7 | 0.00 | 0.00 | 0.00 | 55 | 1006.1 | |
| 20260504032519 | 56 | 0.0 | 1.7 | 0.00 | 0.00 | 0.00 | 55 | 1006.1 | |
| 20260504031519 | 57 | 0.0 | 2.6 | 0.00 | 0.00 | 0.00 | 53 | 1006.3 | |
| 20260504030519 | 58 | 270 | 0.9 | 3.5 | 0.00 | 0.00 | 0.00 | 53 | 1006.3 |
| 20260504025519 | 58 | 248 | 0.9 | 2.6 | 0.00 | 0.00 | 0.00 | 51 | 1006.2 |
| 20260504024519 | 59 | 248 | 0.9 | 1.7 | 0.00 | 0.00 | 0.00 | 51 | 1006.0 |
| 20260504023519 | 60 | 248 | 1.7 | 2.6 | 0.00 | 0.00 | 0.00 | 48 | 1005.9 |
| 20260504022519 | 61 | 270 | 0.9 | 2.6 | 0.00 | 0.00 | 0.00 | 46 | 1006.0 |
| 20260504021519 | 61 | 293 | 1.7 | 3.5 | 0.00 | 0.00 | 0.00 | 44 | 1005.9 |
| 20260504020519 | 63 | 270 | 1.7 | 5.2 | 0.00 | 0.00 | 0.00 | 43 | 1005.8 |
| 20260504015519 | 64 | 0.0 | 1.7 | 0.00 | 0.00 | 0.00 | 43 | 1005.7 | |
| 20260504014519 | 65 | 248 | 0.9 | 5.2 | 0.00 | 0.00 | 0.00 | 41 | 1005.6 |
| 20260504013519 | 66 | 0.0 | 1.7 | 0.00 | 0.00 | 0.00 | 38 | 1005.6 | |
| 20260504012519 | 67 | 248 | 0.9 | 4.3 | 0.00 | 0.00 | 0.00 | 36 | 1005.4 |
| 20260504011519 | 68 | 270 | 1.7 | 6.1 | 0.00 | 0.00 | 0.00 | 33 | 1005.4 |
| 20260504010519 | 68 | 270 | 1.7 | 6.1 | 0.00 | 0.00 | 0.00 | 32 | 1005.3 |
| 20260504005519 | 69 | 270 | 2.6 | 5.2 | 0.00 | 0.00 | 0.00 | 31 | 1005.3 |
| 20260504004519 | 70 | 293 | 2.6 | 7.0 | 0.00 | 0.00 | 0.00 | 29 | 1005.2 |
| 20260504003519 | 70 | 248 | 2.6 | 10.4 | 0.00 | 0.00 | 0.00 | 29 | 1005.2 |
| 20260504002519 | 71 | 270 | 3.5 | 7.0 | 0.00 | 0.00 | 0.00 | 28 | 1005.2 |
| 20260504001518 | 71 | 270 | 4.3 | 11.3 | 0.00 | 0.00 | 0.00 | 29 | 1005.3 |
| 20260504000519 | 72 | 248 | 2.6 | 6.1 | 0.00 | 0.00 | 0.00 | 29 | 1005.3 |
| 20260503235519 | 72 | 248 | 3.5 | 8.7 | 0.00 | 0.00 | 0.00 | 28 | 1005.2 |
| 20260503234519 | 73 | 248 | 0.9 | 2.6 | 0.00 | 0.00 | 0.00 | 29 | 1005.1 |
| 20260503233518 | 74 | 315 | 5.2 | 13.0 | 0.00 | 0.00 | 0.00 | 27 | 1005.1 |
| 20260503232519 | 74 | 293 | 3.5 | 8.7 | 0.00 | 0.00 | 0.00 | 27 | 1005.2 |
| 20260503231519 | 75 | 315 | 4.3 | 8.7 | 0.00 | 0.00 | 0.00 | 26 | 1005.2 |
| 20260503230518 | 75 | 270 | 5.2 | 13.0 | 0.00 | 0.00 | 0.00 | 26 | 1005.3 |
| 20260503225519 | 75 | 248 | 4.3 | 11.3 | 0.00 | 0.00 | 0.00 | 26 | 1005.3 |
| 20260503224519 | 75 | 293 | 6.1 | 10.4 | 0.00 | 0.00 | 0.00 | 26 | 1005.3 |
| 20260503223518 | 76 | 270 | 5.2 | 16.5 | 0.00 | 0.00 | 0.00 | 28 | 1005.2 |
| 20260503222518 | 76 | 248 | 7.0 | 13.0 | 0.00 | 0.00 | 0.00 | 25 | 1005.2 |
| 20260503221518 | 76 | 293 | 5.2 | 12.2 | 0.00 | 0.00 | 0.00 | 28 | 1005.1 |
| 20260503220518 | 76 | 248 | 5.2 | 13.0 | 0.00 | 0.00 | 0.00 | 29 | 1005.0 |
| 20260503215519 | 76 | 270 | 6.1 | 16.5 | 0.00 | 0.00 | 0.00 | 29 | 1005.2 |
| 20260503214519 | 76 | 248 | 5.2 | 13.0 | 0.00 | 0.00 | 0.00 | 28 | 1005.2 |
| 20260503213519 | 77 | 248 | 6.1 | 12.2 | 0.00 | 0.00 | 0.00 | 30 | 1005.1 |
| 20260503212519 | 76 | 248 | 5.2 | 13.9 | 0.00 | 0.00 | 0.00 | 31 | 1005.1 |
| 20260503211518 | 76 | 293 | 5.2 | 13.0 | 0.00 | 0.00 | 0.00 | 33 | 1005.0 |
| 20260503210518 | 76 | 293 | 5.2 | 12.2 | 0.00 | 0.00 | 0.00 | 31 | 1005.2 |
| 20260503205518 | 76 | 270 | 5.2 | 12.2 | 0.00 | 0.00 | 0.00 | 31 | 1005.2 |
| 20260503204518 | 76 | 248 | 7.0 | 14.8 | 0.00 | 0.00 | 0.00 | 32 | 1005.2 |
| 20260503203518 | 76 | 248 | 7.0 | 13.0 | 0.00 | 0.00 | 0.00 | 32 | 1005.2 |
| 20260503202519 | 76 | 248 | 6.1 | 11.3 | 0.00 | 0.00 | 0.00 | 32 | 1005.3 |
| 20260503201518 | 76 | 248 | 6.1 | 13.0 | 0.00 | 0.00 | 0.00 | 33 | 1005.4 |
| 20260503200518 | 75 | 248 | 7.0 | 14.8 | 0.00 | 0.00 | 0.00 | 30 | 1005.3 |
| 20260503195518 | 75 | 270 | 7.8 | 15.6 | 0.00 | 0.00 | 0.00 | 31 | 1005.4 |
| 20260503194518 | 75 | 225 | 7.0 | 17.4 | 0.00 | 0.00 | 0.00 | 33 | 1005.3 |
| 20260503193518 | 75 | 315 | 5.2 | 12.2 | 0.00 | 0.00 | 0.00 | 34 | 1005.5 |
| 20260503192518 | 74 | 248 | 5.2 | 14.8 | 0.00 | 0.00 | 0.00 | 38 | 1005.5 |
| 20260503191518 | 74 | 225 | 4.3 | 8.7 | 0.00 | 0.00 | 0.00 | 38 | 1005.7 |
| 20260503190518 | 73 | 248 | 5.2 | 12.2 | 0.00 | 0.00 | 0.00 | 38 | 1005.7 |
| 20260503185518 | 73 | 248 | 7.0 | 18.2 | 0.00 | 0.00 | 0.00 | 41 | 1005.9 |
| 20260503184518 | 72 | 225 | 5.2 | 12.2 | 0.00 | 0.00 | 0.00 | 42 | 1006.0 |
| 20260503183518 | 72 | 248 | 5.2 | 11.3 | 0.00 | 0.00 | 0.00 | 41 | 1006.1 |
| 20260503182518 | 71 | 225 | 7.0 | 13.0 | 0.00 | 0.00 | 0.00 | 42 | 1006.2 |
| 20260503181518 | 71 | 225 | 5.2 | 14.8 | 0.00 | 0.00 | 0.00 | 44 | 1006.3 |
| 20260503180518 | 70 | 225 | 6.1 | 13.9 | 0.00 | 0.00 | 0.00 | 44 | 1006.5 |
| 20260503175518 | 69 | 225 | 6.1 | 12.2 | 0.00 | 0.00 | 0.00 | 44 | 1006.7 |
| 20260503174518 | 68 | 225 | 6.1 | 11.3 | 0.00 | 0.00 | 0.00 | 45 | 1006.8 |
| 20260503173518 | 68 | 203 | 7.0 | 12.2 | 0.00 | 0.00 | 0.00 | 46 | 1006.9 |
| 20260503172518 | 67 | 225 | 7.0 | 16.5 | 0.00 | 0.00 | 0.00 | 46 | 1007.0 |
| 20260503171518 | 66 | 203 | 7.8 | 15.6 | 0.00 | 0.00 | 0.00 | 45 | 1007.0 |
| 20260503170518 | 66 | 203 | 7.0 | 14.8 | 0.00 | 0.00 | 0.00 | 46 | 1007.1 |
| 20260503150518 | 59 | 203 | 10.4 | 18.2 | 0.00 | 0.00 | 0.00 | 52 | 1008.1 |
| 20260503130518 | 50 | 158 | 9.6 | 13.9 | 0.00 | 0.00 | 0.00 | 67 | 1009.6 |
| 20260503110519 | 50 | 90 | 1.7 | 5.2 | 0.00 | 0.00 | 0.00 | 62 | 1011.9 |
| 20260503081519 | 52 | 203 | 7.0 | 15.6 | 0.00 | 0.00 | 0.00 | 53 | 1013.2 |
| 20260503080519 | 51 | 203 | 7.8 | 12.2 | 0.00 | 0.00 | 0.00 | 53 | 1013.2 |
| 20260503072519 | 50 | 180 | 2.6 | 5.2 | 0.00 | 0.00 | 0.00 | 57 | 1013.2 |
| 20260503071519 | 50 | 180 | 3.5 | 7.8 | 0.00 | 0.00 | 0.00 | 57 | 1013.2 |
| 20260503070519 | 50 | 180 | 4.3 | 7.8 | 0.00 | 0.00 | 0.00 | 55 | 1013.3 |